Time;durP1;ratioP1;P1;durP2;ratioP2;P2;SDS_P1;SDS_P2;PMS_P1;PMS_P2;Temp;Humidity;BMP_temperature;BMP_pressure;BME280_temperature;BME280_humidity;BME280_pressure;Samples;Min_cycle;Max_cycle;Signal;HPM_P1;HPM_P2
2022/12/16 00:01:05;;;;;;;16.03;9.07;;;;;;;3.20;100.00;94671.81;5048857;28;20198;-84
2022/12/16 00:03:33;;;;;;;17.43;9.07;;;;;;;3.15;100.00;94663.69;5041308;28;20213;-84
2022/12/16 00:06:02;;;;;;;15.03;9.40;;;;;;;3.17;100.00;94661.56;5050568;28;20202;-84
2022/12/16 00:08:30;;;;;;;17.47;9.07;;;;;;;3.18;100.00;94664.03;5052782;28;20202;-84
2022/12/16 00:10:58;;;;;;;18.00;10.03;;;;;;;3.22;100.00;94659.06;5038898;28;20253;-84
2022/12/16 00:13:25;;;;;;;15.80;9.70;;;;;;;3.13;100.00;94649.75;5050971;28;20207;-83
2022/12/16 00:15:52;;;;;;;17.33;10.33;;;;;;;3.17;100.00;94673.06;5047455;28;20210;-84
2022/12/16 00:18:19;;;;;;;16.07;9.50;;;;;;;3.18;100.00;94676.53;5040630;28;20244;-84
2022/12/16 00:20:50;;;;;;;17.67;10.30;;;;;;;3.19;100.00;94667.50;5044729;28;20206;-83
2022/12/16 00:23:17;;;;;;;15.10;9.07;;;;;;;3.21;100.00;94673.44;5051365;28;20297;-84
2022/12/16 00:25:45;;;;;;;17.63;9.80;;;;;;;3.19;100.00;94670.19;5047737;28;20202;-83
2022/12/16 00:28:14;;;;;;;14.37;8.83;;;;;;;3.18;100.00;94664.03;5048131;28;20261;-84
2022/12/16 00:30:42;;;;;;;17.23;10.00;;;;;;;3.25;100.00;94671.94;5044672;28;20230;-84
2022/12/16 00:33:09;;;;;;;17.03;9.63;;;;;;;3.19;100.00;94652.31;5048191;28;20201;-84
2022/12/16 00:35:37;;;;;;;13.63;8.73;;;;;;;3.16;100.00;94654.63;5049345;28;20209;-83
2022/12/16 00:38:05;;;;;;;16.27;9.90;;;;;;;3.14;100.00;94651.38;5057184;28;20222;-84
2022/12/16 00:40:32;;;;;;;18.47;10.33;;;;;;;3.26;100.00;94668.22;5035204;28;20205;-83
2022/12/16 00:42:59;;;;;;;17.20;9.53;;;;;;;3.26;100.00;94673.56;5046640;28;20239;-84
2022/12/16 00:45:26;;;;;;;15.63;9.20;;;;;;;3.12;100.00;94653.44;5048952;28;20198;-84
2022/12/16 00:47:53;;;;;;;19.67;10.07;;;;;;;3.15;100.00;94669.00;5047888;28;20244;-83
2022/12/16 00:50:20;;;;;;;17.27;10.67;;;;;;;3.17;100.00;94683.72;5048822;28;20203;-84
2022/12/16 00:52:49;;;;;;;16.53;10.13;;;;;;;3.16;100.00;94682.09;5043364;28;20245;-84
2022/12/16 00:55:18;;;;;;;19.17;10.17;;;;;;;3.14;100.00;94686.06;5044091;28;20301;-84
2022/12/16 00:57:46;;;;;;;17.60;10.27;;;;;;;3.20;100.00;94698.47;5047676;28;20230;-84
2022/12/16 01:00:15;;;;;;;16.23;9.57;;;;;;;3.12;100.00;94688.13;5049605;28;20240;-83
2022/12/16 01:02:44;;;;;;;16.70;10.50;;;;;;;3.15;100.00;94683.13;5048569;28;20233;-84
2022/12/16 01:05:12;;;;;;;16.83;10.33;;;;;;;3.19;100.00;94697.66;5048170;28;20206;-84
2022/12/16 01:07:40;;;;;;;18.40;10.00;;;;;;;3.22;100.00;94699.06;5046276;28;20226;-84
2022/12/16 01:10:09;;;;;;;16.37;9.90;;;;;;;3.20;100.00;94703.81;5043698;28;20237;-84
2022/12/16 01:12:37;;;;;;;18.37;9.60;;;;;;;3.20;100.00;94704.63;5047566;28;20305;-84
2022/12/16 01:15:07;;;;;;;19.73;10.20;;;;;;;3.19;100.00;94703.00;5050428;28;20209;-83
2022/12/16 01:17:34;;;;;;;17.47;9.43;;;;;;;3.18;100.00;94708.53;5039135;28;20234;-84
2022/12/16 01:20:02;;;;;;;15.57;9.13;;;;;;;3.22;100.00;94717.75;5047142;28;20213;-83
2022/12/16 01:22:31;;;;;;;17.67;9.83;;;;;;;3.22;100.00;94709.75;5063818;28;20222;-83
2022/12/16 01:24:58;;;;;;;15.07;9.57;;;;;;;3.25;100.00;94723.44;5042472;28;20271;-84
2022/12/16 01:27:26;;;;;;;14.67;9.17;;;;;;;3.22;100.00;94725.75;5030595;28;20210;-83
2022/12/16 01:29:55;;;;;;;15.43;9.50;;;;;;;3.23;100.00;94730.03;5038842;28;20196;-84
2022/12/16 01:32:22;;;;;;;15.23;8.77;;;;;;;3.19;100.00;94719.00;5052273;28;20245;-83
2022/12/16 01:34:50;;;;;;;17.77;9.03;;;;;;;3.24;100.00;94726.31;5042248;28;20309;-84
2022/12/16 01:37:18;;;;;;;16.17;9.17;;;;;;;3.27;100.00;94736.53;5047228;28;20214;-83
2022/12/16 01:39:46;;;;;;;16.57;9.67;;;;;;;3.25;100.00;94749.28;5044226;28;20222;-83
2022/12/16 01:42:15;;;;;;;14.73;8.97;;;;;;;3.21;100.00;94753.44;5032216;28;20223;-84
2022/12/16 01:44:44;;;;;;;14.47;8.60;;;;;;;3.16;100.00;94751.44;5048926;28;20226;-84
2022/12/16 01:47:16;;;;;;;14.93;9.20;;;;;;;3.21;100.00;94758.78;5046655;28;20217;-84
2022/12/16 01:49:48;;;;;;;17.07;9.20;;;;;;;3.20;100.00;94751.81;5050801;28;20294;-83
2022/12/16 01:52:20;;;;;;;15.27;8.87;;;;;;;3.15;100.00;94757.81;5042823;28;20207;-83
2022/12/16 01:54:53;;;;;;;15.73;9.60;;;;;;;3.18;100.00;94753.88;5045275;28;20229;-84
2022/12/16 01:57:27;;;;;;;16.80;9.10;;;;;;;3.20;100.00;94768.63;5042616;28;20198;-84
2022/12/16 01:59:56;;;;;;;13.47;9.13;;;;;;;3.16;100.00;94763.94;5059777;28;20206;-84
2022/12/16 02:02:25;;;;;;;15.53;8.93;;;;;;;3.11;100.00;94756.63;5048233;28;20206;-84
2022/12/16 02:07:39;;;;;;;14.80;8.80;;;;;;;3.25;100.00;94781.28;5043931;28;20216;-84
2022/12/16 02:10:10;;;;;;;15.73;8.80;;;;;;;3.25;100.00;94786.63;5043916;28;20222;-83
2022/12/16 02:12:47;;;;;;;14.87;8.67;;;;;;;3.29;100.00;94787.81;5044757;28;20232;-83
2022/12/16 02:15:30;;;;;;;14.13;8.17;;;;;;;3.28;100.00;94788.84;5040363;28;20194;-84
2022/12/16 02:18:08;;;;;;;13.23;8.93;;;;;;;3.27;100.00;94790.69;5041049;28;20260;-83
2022/12/16 02:21:14;;;;;;;13.33;8.13;;;;;;;3.25;100.00;94792.78;5055010;28;20287;-84
2022/12/16 02:24:06;;;;;;;16.27;8.70;;;;;;;3.23;100.00;94780.72;5044712;28;20234;-84
2022/12/16 02:27:07;;;;;;;13.73;8.30;;;;;;;3.29;100.00;94777.16;5045716;28;20218;-83
2022/12/16 02:29:54;;;;;;;15.30;8.50;;;;;;;3.29;100.00;94790.47;5043628;28;20213;-84
2022/12/16 02:32:32;;;;;;;13.63;8.17;;;;;;;3.23;100.00;94781.50;5047942;28;20240;-83
2022/12/16 02:35:09;;;;;;;14.97;8.80;;;;;;;3.21;100.00;94786.28;5036309;28;20226;-84
2022/12/16 02:37:43;;;;;;;13.67;8.20;;;;;;;3.09;100.00;94774.69;5044025;28;20221;-83
2022/12/16 02:40:21;;;;;;;11.80;7.70;;;;;;;3.06;100.00;94771.69;5044821;28;20198;-84
2022/12/16 02:42:54;;;;;;;15.00;8.13;;;;;;;3.12;100.00;94776.13;5047745;28;20210;-84
2022/12/16 02:45:26;;;;;;;14.17;7.97;;;;;;;3.18;100.00;94786.69;5059168;28;20220;-83
2022/12/16 02:47:54;;;;;;;11.43;6.77;;;;;;;3.19;100.00;94793.66;5044602;28;20228;-84
2022/12/16 02:50:26;;;;;;;9.53;6.83;;;;;;;3.07;100.00;94786.63;5045273;28;20206;-84
2022/12/16 02:52:54;;;;;;;10.53;6.87;;;;;;;3.12;100.00;94797.44;5044260;28;20232;-83
2022/12/16 02:55:29;;;;;;;12.67;6.30;;;;;;;3.10;100.00;94799.50;5044598;28;20198;-84
2022/12/16 02:58:09;;;;;;;11.30;6.03;;;;;;;3.11;100.00;94801.16;5035533;28;20246;-84
2022/12/16 03:00:46;;;;;;;8.77;5.83;;;;;;;3.07;100.00;94806.09;5031592;28;20206;-83
2022/12/16 03:03:20;;;;;;;9.47;6.13;;;;;;;3.04;100.00;94817.22;5047009;28;20201;-83
2022/12/16 03:05:51;;;;;;;10.07;6.20;;;;;;;3.07;100.00;94816.75;5061353;28;20236;-83
2022/12/16 03:08:23;;;;;;;10.80;6.47;;;;;;;3.10;100.00;94828.84;5054060;28;20210;-83
2022/12/16 03:10:56;;;;;;;9.87;6.00;;;;;;;3.00;100.00;94832.03;5047333;28;20229;-84
2022/12/16 03:13:25;;;;;;;8.33;5.73;;;;;;;2.98;100.00;94829.56;5037963;28;20269;-84
2022/12/16 03:15:56;;;;;;;10.33;6.10;;;;;;;2.99;100.00;94838.38;5037595;28;20191;-83
2022/12/16 03:18:25;;;;;;;8.97;5.67;;;;;;;2.97;100.00;94835.97;5046949;28;20230;-83
2022/12/16 03:20:56;;;;;;;9.63;5.70;;;;;;;2.98;100.00;94842.91;5047004;28;20293;-84
2022/12/16 03:23:28;;;;;;;9.83;5.67;;;;;;;2.93;100.00;94853.41;5045476;28;20419;-83
2022/12/16 03:26:07;;;;;;;5.83;4.60;;;;;;;2.89;100.00;94852.22;5058323;28;20272;-83
2022/12/16 03:28:44;;;;;;;6.93;4.63;;;;;;;2.84;100.00;94860.06;5039170;28;20301;-83
2022/12/16 03:31:19;;;;;;;7.03;4.83;;;;;;;2.92;100.00;94875.78;5042226;28;20234;-84
2022/12/16 03:33:56;;;;;;;8.23;5.27;;;;;;;2.90;100.00;94869.03;5047057;28;20288;-83
2022/12/16 03:36:27;;;;;;;6.83;4.43;;;;;;;2.87;100.00;94875.63;5049467;28;20309;-83
2022/12/16 03:38:55;;;;;;;8.40;4.80;;;;;;;2.84;100.00;94875.22;5051524;28;20245;-83
2022/12/16 03:41:24;;;;;;;6.10;4.20;;;;;;;2.79;100.00;94883.09;5048796;28;20219;-83
2022/12/16 03:43:52;;;;;;;6.93;4.37;;;;;;;2.83;100.00;94895.75;5050703;28;20206;-83
2022/12/16 03:46:19;;;;;;;4.93;3.60;;;;;;;2.79;100.00;94881.22;5050872;28;20210;-83
2022/12/16 03:48:50;;;;;;;5.17;3.57;;;;;;;2.75;100.00;94882.69;5049355;28;20203;-84
2022/12/16 03:51:17;;;;;;;5.37;4.00;;;;;;;2.69;100.00;94894.22;5051630;28;20202;-83
2022/12/16 03:53:44;;;;;;;6.37;4.47;;;;;;;2.68;100.00;94881.94;5051353;28;20198;-83
2022/12/16 03:56:12;;;;;;;6.50;4.37;;;;;;;2.71;100.00;94894.84;5050895;28;20194;-83
2022/12/16 03:58:39;;;;;;;5.13;3.90;;;;;;;2.63;100.00;94893.25;5050347;28;20221;-83
2022/12/16 04:01:08;;;;;;;4.37;3.47;;;;;;;2.53;100.00;94890.25;5051284;28;20212;-83
2022/12/16 04:03:35;;;;;;;4.43;3.77;;;;;;;2.58;100.00;94909.06;5048457;28;20255;-83
2022/12/16 04:06:05;;;;;;;5.97;3.70;;;;;;;2.56;100.00;94905.78;5051492;28;20210;-83
2022/12/16 04:08:32;;;;;;;5.43;3.83;;;;;;;2.51;100.00;94913.63;5047345;28;20202;-84
2022/12/16 04:24:59;;;;;;;5.47;3.40;;;;;;;2.40;100.00;94943.59;5045275;28;20214;-84
2022/12/16 04:27:26;;;;;;;5.73;3.57;;;;;;;2.34;100.00;94948.97;5045821;28;20206;-84
